Time;durP1;ratioP1;P1;durP2;ratioP2;P2;SDS_P1;SDS_P2;PMS_P1;PMS_P2;Temp;Humidity;BMP_temperature;BMP_pressure;BME280_temperature;BME280_humidity;BME280_pressure;Samples;Min_cycle;Max_cycle;Signal;HPM_P1;HPM_P2
2023/08/06 00:02:14;;;;;;;22.88;14.02;;;14.30;99.90;;;;;;5114673;27;20047;-76
2023/08/06 00:05:01;;;;;;;16.42;11.02;;;14.30;99.90;;;;;;5113050;27;20051;-76
2023/08/06 00:07:48;;;;;;;18.52;11.95;;;14.30;99.90;;;;;;5132375;27;20051;-76
2023/08/06 00:10:34;;;;;;;17.35;12.43;;;14.30;99.90;;;;;;5132156;27;20129;-76
2023/08/06 00:13:20;;;;;;;20.27;13.73;;;14.30;99.90;;;;;;5132201;27;20055;-76
2023/08/06 00:16:14;;;;;;;19.90;12.13;;;14.30;99.90;;;;;;5114364;27;20099;-76
2023/08/06 00:19:00;;;;;;;28.27;11.68;;;14.30;99.90;;;;;;5113061;27;20130;-76
2023/08/06 00:21:46;;;;;;;20.05;13.55;;;14.30;99.90;;;;;;5132295;27;20086;-76
2023/08/06 00:24:32;;;;;;;21.95;13.93;;;14.30;99.90;;;;;;5113719;27;20047;-76
2023/08/06 00:27:18;;;;;;;20.05;12.88;;;14.30;99.90;;;;;;5131971;27;20055;-76
2023/08/06 00:30:05;;;;;;;18.85;12.18;;;14.20;99.90;;;;;;5132108;27;20062;-76
2023/08/06 00:32:52;;;;;;;20.02;13.23;;;14.20;99.90;;;;;;5133096;27;20043;-76
2023/08/06 00:35:38;;;;;;;16.73;11.50;;;14.20;99.90;;;;;;5132530;27;20356;-76
2023/08/06 00:38:24;;;;;;;20.38;12.93;;;14.20;99.90;;;;;;5113633;27;20055;-76
2023/08/06 00:41:10;;;;;;;22.20;13.10;;;14.20;99.90;;;;;;5098121;27;20146;-76
2023/08/06 00:43:57;;;;;;;18.80;11.63;;;14.20;99.90;;;;;;5132620;27;20039;-76
2023/08/06 00:46:43;;;;;;;21.30;12.48;;;14.20;99.90;;;;;;5112642;27;20202;-76
2023/08/06 00:49:29;;;;;;;20.95;12.57;;;14.20;99.90;;;;;;5131800;27;20091;-75
2023/08/06 00:52:16;;;;;;;16.73;10.15;;;14.20;99.90;;;;;;5132243;27;20056;-76
2023/08/06 00:55:03;;;;;;;20.55;12.00;;;14.10;99.90;;;;;;5130961;27;20047;-76
2023/08/06 00:57:51;;;;;;;14.82;10.23;;;14.10;99.90;;;;;;5131783;27;20047;-76
2023/08/06 01:00:37;;;;;;;19.70;11.73;;;14.20;99.90;;;;;;5146474;27;20054;-77
2023/08/06 01:03:24;;;;;;;20.08;12.00;;;14.10;99.90;;;;;;5133420;27;20103;-76
2023/08/06 01:06:10;;;;;;;17.02;11.30;;;14.20;99.90;;;;;;5151129;27;20489;-76
2023/08/06 01:09:03;;;;;;;13.00;9.30;;;14.20;99.90;;;;;;5110298;28;20407;-76
2023/08/06 01:12:08;;;;;;;17.83;10.82;;;14.10;99.90;;;;;;5110771;28;20073;-76
2023/08/06 01:15:05;;;;;;;23.35;11.88;;;14.20;99.90;;;;;;5108370;28;20040;-76
2023/08/06 01:17:52;;;;;;;15.55;10.82;;;14.20;99.90;;;;;;5110530;28;20120;-75
2023/08/06 01:20:38;;;;;;;17.20;9.77;;;14.10;99.90;;;;;;5109199;28;20054;-76
2023/08/06 01:23:25;;;;;;;14.50;9.45;;;14.10;99.90;;;;;;5110914;28;20043;-76
2023/08/06 01:26:36;;;;;;;15.63;8.18;;;14.10;99.90;;;;;;5109230;28;20047;-76
2023/08/06 01:29:44;;;;;;;17.02;10.25;;;14.10;99.90;;;;;;5107348;28;20134;-76
2023/08/06 01:32:35;;;;;;;16.35;10.73;;;14.10;99.90;;;;;;5110556;28;20051;-76
2023/08/06 01:35:22;;;;;;;15.93;9.10;;;14.10;99.90;;;;;;5109665;28;20043;-76
2023/08/06 01:38:09;;;;;;;15.73;9.70;;;14.10;99.90;;;;;;5091705;28;20395;-76
2023/08/06 01:40:55;;;;;;;17.70;10.63;;;14.10;99.90;;;;;;5110571;28;20051;-76
2023/08/06 01:43:41;;;;;;;16.30;10.13;;;14.10;99.90;;;;;;5110062;28;20082;-76
2023/08/06 01:46:27;;;;;;;16.90;10.27;;;14.10;99.90;;;;;;5110141;28;20043;-76
2023/08/06 01:49:13;;;;;;;13.25;8.80;;;14.10;99.90;;;;;;5109435;28;20054;-76
2023/08/06 01:52:00;;;;;;;14.38;9.63;;;14.10;99.90;;;;;;5109126;28;20054;-76
2023/08/06 01:54:47;;;;;;;12.10;8.75;;;14.10;99.90;;;;;;5078174;28;20543;-76
2023/08/06 01:57:33;;;;;;;15.60;10.15;;;14.10;99.90;;;;;;5110670;28;20112;-76
2023/08/06 02:00:19;;;;;;;17.33;9.55;;;14.10;99.90;;;;;;5091058;28;20090;-77
2023/08/06 02:03:06;;;;;;;14.27;10.00;;;14.10;99.90;;;;;;5090418;28;20048;-76
2023/08/06 02:05:52;;;;;;;13.02;8.82;;;14.10;99.90;;;;;;5091195;28;20088;-76
2023/08/06 02:08:39;;;;;;;11.50;8.13;;;14.10;99.90;;;;;;5113012;28;20047;-76
2023/08/06 02:11:25;;;;;;;16.23;9.63;;;14.10;99.90;;;;;;5130664;28;20047;-75
2023/08/06 02:14:11;;;;;;;15.23;9.82;;;14.10;99.90;;;;;;5130026;28;20051;-76
2023/08/06 02:16:58;;;;;;;18.00;9.82;;;14.00;99.90;;;;;;5131061;28;20050;-77
2023/08/06 02:19:44;;;;;;;16.35;9.80;;;14.00;99.90;;;;;;5130305;28;20051;-77
2023/08/06 02:22:30;;;;;;;18.08;9.75;;;14.00;99.90;;;;;;5130375;28;20054;-76
2023/08/06 02:25:16;;;;;;;14.35;8.85;;;14.00;99.90;;;;;;5129775;28;20052;-77
2023/08/06 02:28:02;;;;;;;17.02;10.13;;;14.10;99.90;;;;;;5130879;28;20061;-77
2023/08/06 02:30:52;;;;;;;16.95;11.38;;;14.00;99.90;;;;;;5129342;28;20050;-77
2023/08/06 02:33:38;;;;;;;16.05;9.27;;;14.00;99.90;;;;;;5131000;28;20123;-76
2023/08/06 02:36:24;;;;;;;14.38;9.30;;;14.00;99.90;;;;;;5112487;28;20058;-76
2023/08/06 02:39:10;;;;;;;16.08;10.18;;;14.00;99.90;;;;;;5130165;28;20049;-77
2023/08/06 02:41:56;;;;;;;13.68;8.32;;;14.00;99.90;;;;;;5111872;28;20473;-76
2023/08/06 02:44:42;;;;;;;16.40;10.63;;;14.00;99.90;;;;;;5098527;28;20047;-76
2023/08/06 02:47:28;;;;;;;15.90;8.95;;;14.00;99.90;;;;;;5111505;28;20043;-76
2023/08/06 02:50:15;;;;;;;14.68;9.57;;;14.00;99.90;;;;;;5110077;28;20406;-76
2023/08/06 02:53:01;;;;;;;16.40;10.25;;;14.10;99.90;;;;;;5129627;27;20059;-76
2023/08/06 02:55:48;;;;;;;16.25;9.55;;;14.10;99.90;;;;;;5133934;27;20075;-76
2023/08/06 02:58:34;;;;;;;13.85;8.05;;;14.10;99.90;;;;;;5114874;27;20137;-76
2023/08/06 03:01:20;;;;;;;15.65;10.13;;;14.10;99.90;;;;;;5133692;27;20116;-75
2023/08/06 03:04:06;;;;;;;12.90;8.93;;;14.10;99.90;;;;;;5133132;27;20420;-75
2023/08/06 03:06:53;;;;;;;16.88;10.48;;;14.10;99.90;;;;;;5114140;27;20047;-75
2023/08/06 03:09:39;;;;;;;11.52;7.80;;;14.10;99.90;;;;;;5114855;27;20051;-75
2023/08/06 03:12:25;;;;;;;16.60;9.75;;;14.10;99.90;;;;;;5133099;27;20059;-75
2023/08/06 03:15:11;;;;;;;16.70;8.95;;;14.10;99.90;;;;;;5114394;27;20152;-76
2023/08/06 03:17:57;;;;;;;15.25;10.07;;;14.00;99.90;;;;;;5115352;27;20066;-76
2023/08/06 03:20:44;;;;;;;16.63;11.35;;;14.10;99.90;;;;;;5133323;27;20518;-77
2023/08/06 03:23:30;;;;;;;19.70;11.38;;;14.10;99.90;;;;;;5118774;27;20088;-76
2023/08/06 03:26:17;;;;;;;20.98;11.10;;;14.10;99.90;;;;;;5133932;27;20108;-76
2023/08/06 03:29:03;;;;;;;17.30;11.75;;;14.10;99.90;;;;;;5134000;27;20184;-77
2023/08/06 03:31:49;;;;;;;19.17;11.85;;;14.10;99.90;;;;;;5133078;27;20047;-77
2023/08/06 03:34:35;;;;;;;22.15;11.80;;;14.10;99.90;;;;;;5133302;27;20502;-76
2023/08/06 03:37:21;;;;;;;21.80;10.05;;;14.10;99.90;;;;;;5137038;27;20394;-76
2023/08/06 03:40:08;;;;;;;23.42;12.88;;;14.10;99.90;;;;;;5120969;27;20051;-76
2023/08/06 03:42:54;;;;;;;22.23;11.68;;;14.00;99.90;;;;;;5121325;27;20191;-76
2023/08/06 03:45:41;;;;;;;20.33;11.85;;;14.00;99.90;;;;;;5120156;27;20046;-76
2023/08/06 03:48:27;;;;;;;23.42;13.85;;;14.00;99.90;;;;;;5153175;27;20061;-76
2023/08/06 03:51:13;;;;;;;14.05;9.43;;;14.00;99.90;;;;;;5153888;27;20047;-76
2023/08/06 03:53:59;;;;;;;20.17;12.35;;;14.00;99.90;;;;;;5153345;27;20046;-76
2023/08/06 03:56:45;;;;;;;18.77;12.20;;;14.10;99.90;;;;;;5137815;27;20074;-77
2023/08/06 03:59:31;;;;;;;13.90;9.40;;;14.10;99.90;;;;;;5154737;27;20099;-77
2023/08/06 04:02:17;;;;;;;23.65;10.30;;;14.10;99.90;;;;;;5152724;27;20054;-76
2023/08/06 04:05:04;;;;;;;13.90;10.40;;;14.10;99.90;;;;;;5136483;27;20047;-77
2023/08/06 04:07:50;;;;;;;18.60;11.57;;;14.10;99.90;;;;;;5133167;27;20063;-77
2023/08/06 04:10:36;;;;;;;15.40;9.35;;;14.10;99.90;;;;;;5152436;27;20042;-76
2023/08/06 04:13:22;;;;;;;16.58;10.68;;;14.10;99.90;;;;;;5133795;27;20061;-76
2023/08/06 04:16:08;;;;;;;17.60;11.88;;;14.20;99.90;;;;;;5151755;27;20137;-76
2023/08/06 04:18:55;;;;;;;13.75;9.88;;;14.20;99.90;;;;;;5152497;27;20046;-76
2023/08/06 04:21:41;;;;;;;17.00;11.98;;;14.20;99.90;;;;;;5119467;27;20055;-76
2023/08/06 04:24:27;;;;;;;18.23;12.55;;;14.20;99.90;;;;;;5153292;27;20053;-76
2023/08/06 04:27:15;;;;;;;20.13;12.60;;;14.20;99.90;;;;;;5152119;27;20098;-77
2023/08/06 04:30:01;;;;;;;18.67;9.73;;;14.20;99.90;;;;;;5137521;27;20046;-76
2023/08/06 04:32:49;;;;;;;14.13;9.73;;;14.20;99.90;;;;;;5152569;27;20058;-76
2023/08/06 04:35:35;;;;;;;14.82;10.27;;;14.20;99.90;;;;;;5134889;27;20042;-78
2023/08/06 04:38:23;;;;;;;17.48;11.73;;;14.20;99.90;;;;;;5136981;27;20462;-76
2023/08/06 04:41:09;;;;;;;12.43;8.70;;;14.30;99.90;;;;;;5152557;27;20477;-77
2023/08/06 04:43:57;;;;;;;19.02;12.35;;;14.30;99.90;;;;;;5132898;27;20046;-76
2023/08/06 04:46:43;;;;;;;17.83;11.82;;;14.30;99.90;;;;;;5151266;27;20047;-75
2023/08/06 04:49:29;;;;;;;18.20;10.63;;;14.30;99.90;;;;;;5153180;27;20038;-76
2023/08/06 04:52:15;;;;;;;18.52;11.80;;;14.30;99.90;;;;;;5151345;27;20111;-77
2023/08/06 04:55:01;;;;;;;17.23;11.68;;;14.30;99.90;;;;;;5152005;27;20054;-76
2023/08/06 04:57:47;;;;;;;17.98;11.57;;;14.30;99.90;;;;;;5152616;27;20133;-76
2023/08/06 05:00:33;;;;;;;19.67;12.23;;;14.30;99.90;;;;;;5133578;27;20111;-76
2023/08/06 05:03:20;;;;;;;20.27;11.90;;;14.30;99.90;;;;;;5152102;27;20047;-76
2023/08/06 05:06:06;;;;;;;17.02;10.63;;;14.30;99.90;;;;;;5133707;27;20047;-76
2023/08/06 05:08:52;;;;;;;16.50;10.80;;;14.30;99.90;;;;;;5151738;27;20043;-76
2023/08/06 05:11:38;;;;;;;16.08;10.18;;;14.40;99.90;;;;;;5150916;27;20043;-76
2023/08/06 05:14:24;;;;;;;16.50;10.45;;;14.30;99.90;;;;;;5151449;27;20669;-76
2023/08/06 05:17:10;;;;;;;13.57;9.07;;;14.40;99.90;;;;;;5133699;27;20051;-76
2023/08/06 05:19:56;;;;;;;14.05;9.07;;;14.50;99.90;;;;;;5151167;27;20039;-75
2023/08/06 05:22:43;;;;;;;13.88;9.55;;;14.50;99.90;;;;;;5151137;27;20043;-76
2023/08/06 05:25:29;;;;;;;19.27;11.55;;;14.60;99.90;;;;;;5132643;27;20035;-76
2023/08/06 05:28:15;;;;;;;14.57;10.15;;;14.60;99.90;;;;;;5151213;27;20054;-76
2023/08/06 05:31:05;;;;;;;12.43;8.20;;;14.70;99.90;;;;;;5151180;27;20051;-76
2023/08/06 05:33:51;;;;;;;14.50;9.90;;;14.70;99.90;;;;;;5150576;27;20137;-76
2023/08/06 05:36:37;;;;;;;15.48;9.65;;;14.80;99.90;;;;;;5151020;27;20043;-76
2023/08/06 05:39:24;;;;;;;16.23;10.55;;;14.80;99.90;;;;;;5118515;27;20043;-75
2023/08/06 05:42:10;;;;;;;15.80;9.02;;;14.90;99.90;;;;;;5150779;27;20490;-76
2023/08/06 05:44:56;;;;;;;13.07;8.75;;;14.90;99.90;;;;;;5150378;27;20056;-76
2023/08/06 05:47:42;;;;;;;12.80;7.82;;;15.00;99.90;;;;;;5150465;27;20405;-75
2023/08/06 05:50:28;;;;;;;12.02;8.68;;;15.00;99.90;;;;;;5151020;27;20046;-76
2023/08/06 05:53:15;;;;;;;11.10;7.53;;;15.10;99.90;;;;;;5150456;27;20050;-76
2023/08/06 05:56:01;;;;;;;12.52;7.57;;;15.10;99.90;;;;;;5117530;27;20038;-77
2023/08/06 05:58:47;;;;;;;11.40;6.78;;;15.20;99.90;;;;;;5134631;27;20046;-77
2023/08/06 06:01:33;;;;;;;10.23;7.00;;;15.30;99.90;;;;;;5131843;27;20049;-77
2023/08/06 06:04:20;;;;;;;12.93;6.82;;;15.30;99.90;;;;;;5149921;27;20062;-77
2023/08/06 06:07:06;;;;;;;9.02;5.90;;;15.40;99.90;;;;;;5134047;27;20110;-77
2023/08/06 06:09:52;;;;;;;10.55;6.93;;;15.40;99.90;;;;;;5131612;27;20045;-76
2023/08/06 06:12:39;;;;;;;8.38;5.60;;;15.50;99.90;;;;;;5150624;27;20050;-77
2023/08/06 06:15:25;;;;;;;9.82;5.80;;;15.50;99.90;;;;;;5150169;27;20047;-77
2023/08/06 06:18:11;;;;;;;7.18;5.40;;;15.60;99.90;;;;;;5150089;27;20051;-76
2023/08/06 06:20:58;;;;;;;10.07;5.53;;;15.60;99.90;;;;;;5150186;27;20047;-77
2023/08/06 06:23:44;;;;;;;9.23;5.72;;;15.70;99.90;;;;;;5150307;27;20054;-77
2023/08/06 06:26:31;;;;;;;8.02;5.07;;;15.80;99.90;;;;;;5150160;27;20581;-77
2023/08/06 06:29:17;;;;;;;8.43;5.70;;;15.90;99.90;;;;;;5134355;27;20137;-77
2023/08/06 06:32:04;;;;;;;7.85;4.65;;;16.00;99.90;;;;;;5135030;27;20046;-77
2023/08/06 06:34:50;;;;;;;9.45;5.50;;;16.00;99.90;;;;;;5154062;27;20051;-78
2023/08/06 06:37:36;;;;;;;8.68;5.55;;;16.00;99.90;;;;;;5153693;27;20586;-77
2023/08/06 06:40:22;;;;;;;10.98;6.20;;;16.10;99.90;;;;;;5135031;27;20054;-77
2023/08/06 06:43:08;;;;;;;10.77;6.38;;;16.20;99.90;;;;;;5139286;27;20039;-77
2023/08/06 06:45:59;;;;;;;9.70;6.15;;;16.30;99.90;;;;;;5153994;27;20090;-78
2023/08/06 06:48:45;;;;;;;9.60;5.65;;;16.30;99.90;;;;;;5154369;27;20451;-77
2023/08/06 06:51:32;;;;;;;8.25;5.55;;;16.40;99.90;;;;;;5121977;27;20078;-77
2023/08/06 06:54:18;;;;;;;9.70;5.20;;;16.50;99.90;;;;;;5121813;27;20050;-77
2023/08/06 06:57:05;;;;;;;10.32;5.20;;;16.70;99.90;;;;;;5154037;27;20054;-77
2023/08/06 06:59:52;;;;;;;10.50;5.70;;;16.80;99.90;;;;;;5153210;27;20054;-77
2023/08/06 07:02:39;;;;;;;11.68;5.72;;;16.90;99.90;;;;;;5153667;27;20085;-77
2023/08/06 07:05:25;;;;;;;9.23;5.10;;;17.00;99.90;;;;;;5153707;27;20186;-77
2023/08/06 07:08:11;;;;;;;9.38;5.75;;;17.20;99.90;;;;;;5153082;27;20544;-77
2023/08/06 07:11:06;;;;;;;7.80;5.28;;;17.40;99.90;;;;;;5138999;27;20502;-77
2023/08/06 07:13:58;;;;;;;10.55;5.45;;;17.60;99.90;;;;;;5154631;27;20043;-77
2023/08/06 07:16:44;;;;;;;11.82;5.47;;;17.80;99.90;;;;;;5153801;27;20070;-77
2023/08/06 07:19:30;;;;;;;7.25;4.22;;;18.10;99.90;;;;;;5153019;27;20494;-77
2023/08/06 07:22:16;;;;;;;8.05;3.85;;;18.30;99.90;;;;;;5153459;27;20054;-78
2023/08/06 07:25:03;;;;;;;5.80;3.25;;;18.30;99.90;;;;;;5154281;27;20046;-77
2023/08/06 07:27:49;;;;;;;8.30;3.40;;;18.50;99.90;;;;;;5153655;27;20047;-78
2023/08/06 07:30:39;;;;;;;4.43;2.88;;;18.70;99.90;;;;;;5137136;27;20042;-78
2023/08/06 07:33:25;;;;;;;4.35;2.35;;;19.00;99.90;;;;;;5134964;27;20422;-77
2023/08/06 07:36:13;;;;;;;5.18;2.60;;;19.40;99.90;;;;;;5153246;27;20593;-77
2023/08/06 07:38:59;;;;;;;4.40;1.90;;;19.70;99.90;;;;;;5153548;27;20399;-77
2023/08/06 07:41:46;;;;;;;6.15;2.42;;;19.80;99.90;;;;;;5134434;27;20086;-78
2023/08/06 07:44:32;;;;;;;7.35;2.20;;;19.90;99.90;;;;;;5136292;27;20486;-77
2023/08/06 07:47:19;;;;;;;5.10;2.83;;;20.00;99.90;;;;;;5152568;27;20053;-78
2023/08/06 07:50:05;;;;;;;5.97;2.70;;;20.20;99.90;;;;;;5153170;27;20054;-77
2023/08/06 07:52:51;;;;;;;7.90;3.15;;;20.20;99.90;;;;;;5153192;27;20111;-77
2023/08/06 07:55:38;;;;;;;4.30;2.13;;;20.30;99.90;;;;;;5152695;27;20130;-78
2023/08/06 07:58:25;;;;;;;5.70;1.83;;;20.40;99.90;;;;;;5134307;27;20046;-78
2023/08/06 08:01:11;;;;;;;5.70;1.73;;;20.50;99.90;;;;;;5119503;27;20051;-78
2023/08/06 08:03:57;;;;;;;4.15;1.70;;;20.60;99.90;;;;;;5152592;27;20050;-77
2023/08/06 08:06:44;;;;;;;4.82;2.17;;;20.70;99.90;;;;;;5151533;27;20039;-77
2023/08/06 08:09:30;;;;;;;5.55;1.90;;;20.70;99.90;;;;;;5152575;27;20047;-78
2023/08/06 08:12:16;;;;;;;5.40;1.85;;;20.80;99.90;;;;;;5133575;27;20057;-77
2023/08/06 08:15:03;;;;;;;4.60;2.22;;;20.80;99.90;;;;;;5120376;27;20097;-78
2023/08/06 08:17:49;;;;;;;3.88;2.10;;;21.00;99.90;;;;;;5133113;27;20047;-78
2023/08/06 08:20:35;;;;;;;7.30;1.85;;;21.10;99.90;;;;;;5133569;27;20062;-78
2023/08/06 08:23:21;;;;;;;4.65;1.80;;;21.10;99.90;;;;;;5152927;27;20086;-78
2023/08/06 08:26:08;;;;;;;2.83;1.40;;;21.10;99.90;;;;;;5151770;27;20111;-78
2023/08/06 08:28:54;;;;;;;4.90;1.50;;;21.00;99.90;;;;;;5152437;27;20046;-78
2023/08/06 08:31:40;;;;;;;6.45;2.00;;;21.00;99.90;;;;;;5133356;27;20080;-78
2023/08/06 08:34:26;;;;;;;3.60;1.67;;;21.00;99.90;;;;;;5151984;27;20494;-78
2023/08/06 08:37:13;;;;;;;3.97;1.65;;;21.00;99.90;;;;;;5152188;27;20039;-78
2023/08/06 08:40:00;;;;;;;5.50;1.90;;;21.10;99.90;;;;;;5132398;27;20050;-78
2023/08/06 08:42:47;;;;;;;3.65;1.70;;;21.30;99.90;;;;;;5133108;27;20058;-76
2023/08/06 08:45:39;;;;;;;5.75;1.60;;;21.40;99.90;;;;;;5151611;27;20043;-76
2023/08/06 08:48:26;;;;;;;3.28;1.40;;;21.50;99.90;;;;;;5135795;27;20051;-76
2023/08/06 08:51:13;;;;;;;4.75;1.40;;;21.30;99.90;;;;;;5135916;27;20092;-76
2023/08/06 08:54:02;;;;;;;3.38;1.50;;;21.30;99.90;;;;;;5152628;27;20047;-77
2023/08/06 08:56:48;;;;;;;3.58;1.42;;;21.30;99.90;;;;;;5106334;27;20054;-77
2023/08/06 08:59:34;;;;;;;3.80;1.55;;;21.50;99.90;;;;;;5118627;27;20086;-76
2023/08/06 09:02:22;;;;;;;3.35;1.75;;;21.70;99.90;;;;;;5151175;27;20043;-77
2023/08/06 09:05:10;;;;;;;3.08;1.40;;;21.90;99.90;;;;;;5151156;27;20078;-76
2023/08/06 09:08:03;;;;;;;5.93;1.50;;;22.20;99.90;;;;;;5150547;27;20062;-77
2023/08/06 09:10:50;;;;;;;3.72;1.35;;;22.30;99.90;;;;;;5150732;27;20409;-77
2023/08/06 09:13:37;;;;;;;4.03;1.70;;;22.20;99.90;;;;;;5150827;27;20042;-77
2023/08/06 09:16:23;;;;;;;4.07;1.60;;;22.10;99.90;;;;;;5150980;27;20125;-76
2023/08/06 09:19:12;;;;;;;3.47;1.80;;;22.20;99.90;;;;;;5150796;27;20047;-77
2023/08/06 09:21:59;;;;;;;2.70;1.20;;;22.20;99.90;;;;;;5150768;27;20078;-77
2023/08/06 09:24:45;;;;;;;3.75;1.48;;;22.10;99.90;;;;;;5133208;27;20572;-77
2023/08/06 09:27:31;;;;;;;5.10;2.53;;;22.30;99.90;;;;;;5150661;27;20448;-76
2023/08/06 09:30:38;;;;;;;3.10;1.40;;;22.40;99.90;;;;;;5151135;27;20189;-77
2023/08/06 09:33:24;;;;;;;4.15;1.58;;;22.40;99.90;;;;;;5151651;27;20439;-77
2023/08/06 09:36:11;;;;;;;4.85;1.70;;;22.70;99.90;;;;;;5150821;27;20047;-77
2023/08/06 09:38:57;;;;;;;2.47;1.20;;;22.80;99.90;;;;;;5150554;27;20042;-76
2023/08/06 09:41:44;;;;;;;10.43;2.85;;;22.90;99.90;;;;;;5150238;27;20498;-77
2023/08/06 09:44:33;;;;;;;6.75;1.95;;;23.00;99.90;;;;;;5151637;27;20110;-76
2023/08/06 09:47:20;;;;;;;6.72;2.17;;;23.10;99.90;;;;;;5150104;27;20102;-77
2023/08/06 09:50:14;;;;;;;6.22;1.85;;;23.20;99.90;;;;;;5134425;27;20093;-77
2023/08/06 09:53:01;;;;;;;5.72;1.80;;;23.10;99.90;;;;;;5150538;27;20046;-75
2023/08/06 09:55:47;;;;;;;3.60;1.73;;;23.20;99.90;;;;;;5150182;27;20106;-76
2023/08/06 09:58:34;;;;;;;5.82;1.63;;;23.20;99.90;;;;;;5131760;27;20047;-77
2023/08/06 10:01:21;;;;;;;4.97;1.80;;;23.20;99.90;;;;;;5150231;27;20098;-77
2023/08/06 10:04:08;;;;;;;7.50;1.95;;;23.20;99.90;;;;;;5131975;27;20467;-77
2023/08/06 10:06:54;;;;;;;4.40;1.70;;;23.20;99.90;;;;;;5141457;27;20059;-76
2023/08/06 10:09:40;;;;;;;3.45;1.48;;;23.10;99.90;;;;;;5128123;28;20047;-76
2023/08/06 10:12:31;;;;;;;5.13;1.75;;;23.40;99.90;;;;;;5143544;27;20042;-76
2023/08/06 10:15:24;;;;;;;5.07;1.75;;;23.50;99.90;;;;;;5111070;28;20087;-76
2023/08/06 10:18:13;;;;;;;4.03;1.58;;;23.60;99.90;;;;;;5129929;28;20058;-76
2023/08/06 10:21:00;;;;;;;3.55;1.52;;;23.70;99.90;;;;;;5130375;28;20118;-76
2023/08/06 10:23:54;;;;;;;4.38;1.75;;;23.80;99.90;;;;;;5112217;28;20055;-75
2023/08/06 10:26:40;;;;;;;5.78;1.73;;;23.90;99.90;;;;;;5129960;28;20047;-76
2023/08/06 10:29:36;;;;;;;2.70;1.50;;;23.90;99.90;;;;;;5130510;28;20051;-76
2023/08/06 10:32:49;;;;;;;3.72;1.35;;;23.80;99.90;;;;;;5130183;28;20046;-76
2023/08/06 10:35:38;;;;;;;3.30;1.60;;;24.00;99.90;;;;;;5129614;28;20108;-77
2023/08/06 10:38:29;;;;;;;4.20;1.73;;;24.00;99.90;;;;;;5103423;28;20048;-76
2023/08/06 10:41:28;;;;;;;3.63;1.70;;;24.20;99.90;;;;;;5149043;27;20053;-76
2023/08/06 10:44:15;;;;;;;3.78;2.03;;;24.30;99.90;;;;;;5136123;27;20085;-76
2023/08/06 10:47:28;;;;;;;3.60;1.50;;;24.20;99.90;;;;;;5130792;27;20055;-76
2023/08/06 10:50:17;;;;;;;4.88;1.50;;;24.40;99.90;;;;;;5150135;27;20078;-76
2023/08/06 10:53:06;;;;;;;88.55;44.47;;;24.50;99.90;;;;;;5131993;27;20164;-76
2023/08/06 10:55:52;;;;;;;178.30;128.10;;;24.80;99.90;;;;;;5130781;27;20410;-75
2023/08/06 10:58:38;;;;;;;18.65;10.50;;;25.00;99.90;;;;;;5149427;27;20411;-76
2023/08/06 11:01:28;;;;;;;27.70;22.08;;;25.30;99.60;;;;;;5134269;27;20104;-76
2023/08/06 11:04:16;;;;;;;6.18;3.13;;;25.60;99.30;;;;;;5118290;27;20039;-77
2023/08/06 11:07:02;;;;;;;26.83;18.38;;;25.50;99.20;;;;;;5128828;27;20069;-77
2023/08/06 11:09:52;;;;;;;12.27;8.18;;;25.60;99.30;;;;;;5146965;27;20517;-76
2023/08/06 11:12:39;;;;;;;40.63;27.42;;;25.40;99.20;;;;;;5150139;27;20046;-78
2023/08/06 11:15:26;;;;;;;14.13;6.65;;;25.40;99.10;;;;;;5152924;27;20043;-77
2023/08/06 11:18:12;;;;;;;23.77;14.25;;;25.30;99.10;;;;;;5153436;27;20050;-78
2023/08/06 11:21:02;;;;;;;9.88;5.65;;;25.50;99.00;;;;;;5152922;27;20043;-77
2023/08/06 11:23:48;;;;;;;25.38;18.83;;;25.50;98.30;;;;;;5154104;27;20051;-77
2023/08/06 11:26:36;;;;;;;18.80;11.35;;;25.50;98.50;;;;;;5154114;27;20099;-78
2023/08/06 11:29:23;;;;;;;6.97;3.80;;;25.30;97.70;;;;;;5152735;27;20478;-77
2023/08/06 11:32:10;;;;;;;14.48;10.77;;;25.10;97.90;;;;;;5152778;27;20119;-77
2023/08/06 11:34:56;;;;;;;9.50;6.13;;;25.10;98.20;;;;;;5152871;27;20054;-77
2023/08/06 11:37:46;;;;;;;219.85;195.07;;;25.20;98.00;;;;;;5153503;27;20042;-77
2023/08/06 11:40:33;;;;;;;132.77;118.85;;;25.00;97.80;;;;;;5134442;27;20059;-77
2023/08/06 11:43:22;;;;;;;59.53;42.30;;;25.30;98.10;;;;;;5152511;27;20095;-77
2023/08/06 11:46:08;;;;;;;6.88;4.35;;;25.10;97.80;;;;;;5153834;27;20081;-77
2023/08/06 11:48:55;;;;;;;13.90;11.35;;;25.00;97.60;;;;;;5152469;27;20490;-77
2023/08/06 11:51:41;;;;;;;7.15;4.60;;;25.00;97.30;;;;;;5152424;27;20051;-77
2023/08/06 11:54:36;;;;;;;5.30;3.13;;;25.20;97.50;;;;;;5152302;27;20102;-77
2023/08/06 11:57:22;;;;;;;5.85;2.97;;;25.40;97.30;;;;;;5134651;27;20490;-78
2023/08/06 12:00:10;;;;;;;10.73;5.10;;;25.60;97.30;;;;;;5153213;27;20518;-77
2023/08/06 12:02:57;;;;;;;5.35;3.13;;;25.60;97.50;;;;;;5119359;27;20509;-77
2023/08/06 12:05:46;;;;;;;6.47;2.83;;;26.00;97.10;;;;;;5120876;27;20054;-77
2023/08/06 12:08:33;;;;;;;5.68;2.33;;;26.20;96.70;;;;;;5117850;27;20054;-77
2023/08/06 12:11:21;;;;;;;7.70;4.97;;;26.40;96.10;;;;;;5131008;27;20103;-77
2023/08/06 12:14:08;;;;;;;5.68;2.55;;;26.60;95.20;;;;;;5114075;27;20185;-78
2023/08/06 12:16:54;;;;;;;18.80;12.15;;;26.50;95.10;;;;;;5131143;27;20054;-77
2023/08/06 12:19:40;;;;;;;16.30;10.90;;;26.80;95.20;;;;;;5131798;27;20047;-77
2023/08/06 12:22:26;;;;;;;7.80;4.25;;;27.00;95.60;;;;;;5114316;27;20047;-77
2023/08/06 12:25:13;;;;;;;9.50;6.28;;;27.20;94.70;;;;;;5112135;27;20450;-78
2023/08/06 12:27:59;;;;;;;10.52;5.50;;;27.20;94.80;;;;;;5131230;27;20494;-77
2023/08/06 12:30:47;;;;;;;8.70;4.30;;;27.10;94.80;;;;;;5113455;27;20043;-76
2023/08/06 12:33:33;;;;;;;8.15;4.55;;;27.20;94.60;;;;;;5132394;27;20414;-77
2023/08/06 12:36:19;;;;;;;13.35;7.82;;;26.90;94.10;;;;;;5113541;27;20139;-77
2023/08/06 12:39:05;;;;;;;7.43;3.08;;;26.90;94.10;;;;;;5113192;27;20047;-77
2023/08/06 12:41:51;;;;;;;5.10;2.92;;;27.00;93.60;;;;;;5131769;27;20066;-77
2023/08/06 12:44:37;;;;;;;4.68;1.85;;;27.00;94.10;;;;;;5113746;27;20065;-77
2023/08/06 12:47:23;;;;;;;4.60;1.73;;;27.20;93.20;;;;;;5131958;27;20448;-77
2023/08/06 12:50:10;;;;;;;2.88;1.50;;;27.50;92.90;;;;;;5099580;27;20043;-77
2023/08/06 12:52:56;;;;;;;3.22;1.38;;;27.60;92.10;;;;;;5116312;27;20047;-77
2023/08/06 12:55:43;;;;;;;4.30;1.90;;;27.80;91.20;;;;;;5131068;27;20062;-77
2023/08/06 12:58:29;;;;;;;4.53;1.60;;;28.10;92.00;;;;;;5112735;27;20099;-77
2023/08/06 13:01:15;;;;;;;3.83;1.70;;;28.10;90.90;;;;;;5131180;27;20142;-78
2023/08/06 13:04:02;;;;;;;5.80;1.52;;;27.90;91.00;;;;;;5131081;27;20047;-77
2023/08/06 13:06:49;;;;;;;2.90;1.27;;;27.70;91.40;;;;;;5111643;27;20054;-77
2023/08/06 13:09:35;;;;;;;5.47;2.72;;;27.80;91.00;;;;;;5116132;27;20509;-77
2023/08/06 13:12:22;;;;;;;4.43;2.20;;;28.20;91.30;;;;;;5130371;27;20479;-78
2023/08/06 13:15:09;;;;;;;3.15;1.25;;;28.50;91.50;;;;;;5114883;27;20043;-77
2023/08/06 13:17:55;;;;;;;4.65;1.80;;;28.30;91.30;;;;;;5113267;27;20141;-77
2023/08/06 13:20:41;;;;;;;3.38;1.30;;;29.20;90.90;;;;;;5097841;27;20086;-78
2023/08/06 13:23:27;;;;;;;4.55;1.60;;;29.20;90.10;;;;;;5099147;27;20115;-77
2023/08/06 13:26:15;;;;;;;3.20;1.35;;;29.20;89.70;;;;;;5129701;27;20039;-78
2023/08/06 13:29:02;;;;;;;4.25;1.38;;;29.30;89.50;;;;;;5112146;27;20513;-77
2023/08/06 13:31:48;;;;;;;4.07;1.98;;;29.60;88.00;;;;;;5130423;27;20072;-77
2023/08/06 13:34:34;;;;;;;3.25;1.20;;;29.80;88.10;;;;;;5130461;27;20047;-77
2023/08/06 13:37:20;;;;;;;3.10;1.10;;;30.60;88.40;;;;;;5112381;27;20137;-77
2023/08/06 13:40:08;;;;;;;2.65;1.33;;;30.70;84.70;;;;;;5098872;27;20074;-77
2023/08/06 13:42:54;;;;;;;3.25;1.55;;;31.10;85.50;;;;;;5130466;27;20422;-78
2023/08/06 13:45:40;;;;;;;2.97;1.20;;;30.70;84.70;;;;;;5131053;27;20486;-77
2023/08/06 13:48:26;;;;;;;3.28;1.40;;;31.10;84.90;;;;;;5129463;27;20487;-78
2023/08/06 13:51:13;;;;;;;3.80;1.60;;;31.50;83.00;;;;;;5129890;27;20157;-77
2023/08/06 13:53:59;;;;;;;3.58;1.50;;;31.90;82.60;;;;;;5111465;27;20521;-77
2023/08/06 13:56:45;;;;;;;3.15;1.30;;;32.40;81.90;;;;;;5112108;27;20146;-78
2023/08/06 13:59:32;;;;;;;3.95;2.00;;;32.60;80.30;;;;;;5114889;27;20414;-77
2023/08/06 14:02:18;;;;;;;3.72;1.20;;;32.80;79.90;;;;;;5111273;27;20077;-78
2023/08/06 14:05:05;;;;;;;3.42;1.17;;;33.30;78.70;;;;;;5111042;28;20062;-78
2023/08/06 14:07:51;;;;;;;3.60;1.15;;;33.70;78.90;;;;;;5129816;27;20475;-77
2023/08/06 14:10:37;;;;;;;2.50;1.10;;;34.20;76.40;;;;;;5130219;28;20077;-78
2023/08/06 14:13:23;;;;;;;3.55;1.10;;;34.20;74.10;;;;;;5130191;28;20210;-78
2023/08/06 14:16:09;;;;;;;2.38;1.08;;;34.60;74.10;;;;;;5129601;28;20589;-79
2023/08/06 14:18:55;;;;;;;3.60;1.00;;;34.40;72.20;;;;;;5111706;28;20055;-77
2023/08/06 14:21:41;;;;;;;3.42;1.13;;;34.30;70.90;;;;;;5112095;28;20406;-78